sensor_id;sensor_type;location;lat;lon;timestamp;P1;durP1;ratioP1;P2;durP2;ratioP2
76157;SDS011;64907;51.574;6.502;2023-04-29T00:00:16;90.90;;;45.43;;
76157;SDS011;64907;51.574;6.502;2023-04-29T00:02:42;92.03;;;45.72;;
76157;SDS011;64907;51.574;6.502;2023-04-29T00:05:07;113.32;;;51.55;;
76157;SDS011;64907;51.574;6.502;2023-04-29T00:07:33;113.75;;;54.75;;
76157;SDS011;64907;51.574;6.502;2023-04-29T00:09:58;112.03;;;52.87;;
76157;SDS011;64907;51.574;6.502;2023-04-29T00:12:23;104.88;;;52.22;;
76157;SDS011;64907;51.574;6.502;2023-04-29T00:14:48;110.45;;;52.63;;
76157;SDS011;64907;51.574;6.502;2023-04-29T00:17:14;103.18;;;50.13;;
76157;SDS011;64907;51.574;6.502;2023-04-29T00:19:40;95.35;;;46.72;;
76157;SDS011;64907;51.574;6.502;2023-04-29T00:22:05;90.28;;;43.88;;
76157;SDS011;64907;51.574;6.502;2023-04-29T00:24:30;102.45;;;48.92;;
76157;SDS011;64907;51.574;6.502;2023-04-29T00:26:55;94.88;;;48.50;;
76157;SDS011;64907;51.574;6.502;2023-04-29T00:29:21;92.63;;;47.22;;
76157;SDS011;64907;51.574;6.502;2023-04-29T00:31:47;89.68;;;46.42;;
76157;SDS011;64907;51.574;6.502;2023-04-29T00:34:12;90.40;;;46.45;;
76157;SDS011;64907;51.574;6.502;2023-04-29T00:36:37;103.23;;;52.00;;
76157;SDS011;64907;51.574;6.502;2023-04-29T00:39:03;101.63;;;48.63;;
76157;SDS011;64907;51.574;6.502;2023-04-29T00:41:28;102.68;;;46.95;;
76157;SDS011;64907;51.574;6.502;2023-04-29T00:43:54;97.90;;;48.55;;
76157;SDS011;64907;51.574;6.502;2023-04-29T00:46:19;94.47;;;47.35;;
76157;SDS011;64907;51.574;6.502;2023-04-29T00:48:44;102.13;;;49.30;;
76157;SDS011;64907;51.574;6.502;2023-04-29T00:51:09;99.63;;;47.20;;
76157;SDS011;64907;51.574;6.502;2023-04-29T00:53:35;102.50;;;49.25;;
76157;SDS011;64907;51.574;6.502;2023-04-29T00:56:00;105.88;;;47.67;;
76157;SDS011;64907;51.574;6.502;2023-04-29T00:58:26;105.25;;;49.40;;
76157;SDS011;64907;51.574;6.502;2023-04-29T01:00:58;104.13;;;50.50;;
76157;SDS011;64907;51.574;6.502;2023-04-29T01:03:23;111.38;;;50.05;;
76157;SDS011;64907;51.574;6.502;2023-04-29T01:05:49;125.50;;;51.42;;
76157;SDS011;64907;51.574;6.502;2023-04-29T01:11:09;109.93;;;45.65;;
76157;SDS011;64907;51.574;6.502;2023-04-29T01:13:42;127.10;;;52.15;;
76157;SDS011;64907;51.574;6.502;2023-04-29T01:16:17;115.32;;;47.60;;
76157;SDS011;64907;51.574;6.502;2023-04-29T01:18:46;126.05;;;53.70;;
76157;SDS011;64907;51.574;6.502;2023-04-29T01:21:13;112.47;;;48.13;;
76157;SDS011;64907;51.574;6.502;2023-04-29T01:23:39;109.07;;;48.55;;
76157;SDS011;64907;51.574;6.502;2023-04-29T01:26:04;113.13;;;47.88;;
76157;SDS011;64907;51.574;6.502;2023-04-29T01:28:37;96.97;;;45.17;;
76157;SDS011;64907;51.574;6.502;2023-04-29T01:31:18;75.43;;;36.33;;
76157;SDS011;64907;51.574;6.502;2023-04-29T01:33:54;85.93;;;39.75;;
76157;SDS011;64907;51.574;6.502;2023-04-29T01:38:53;71.40;;;36.08;;
76157;SDS011;64907;51.574;6.502;2023-04-29T01:41:34;69.03;;;35.30;;
76157;SDS011;64907;51.574;6.502;2023-04-29T01:44:07;64.05;;;35.72;;
76157;SDS011;64907;51.574;6.502;2023-04-29T01:46:32;62.13;;;33.63;;
76157;SDS011;64907;51.574;6.502;2023-04-29T01:48:57;54.33;;;29.80;;
76157;SDS011;64907;51.574;6.502;2023-04-29T01:51:23;59.33;;;33.53;;
76157;SDS011;64907;51.574;6.502;2023-04-29T01:53:48;72.00;;;35.15;;
76157;SDS011;64907;51.574;6.502;2023-04-29T01:56:13;71.32;;;36.78;;
76157;SDS011;64907;51.574;6.502;2023-04-29T01:58:38;61.43;;;34.53;;
76157;SDS011;64907;51.574;6.502;2023-04-29T02:01:03;71.50;;;35.00;;
76157;SDS011;64907;51.574;6.502;2023-04-29T02:03:29;59.55;;;33.03;;
76157;SDS011;64907;51.574;6.502;2023-04-29T02:05:54;53.70;;;28.73;;
76157;SDS011;64907;51.574;6.502;2023-04-29T02:08:20;60.53;;;32.47;;
76157;SDS011;64907;51.574;6.502;2023-04-29T02:10:54;67.88;;;33.90;;
76157;SDS011;64907;51.574;6.502;2023-04-29T02:13:19;60.72;;;32.30;;
76157;SDS011;64907;51.574;6.502;2023-04-29T02:15:45;68.25;;;33.17;;
76157;SDS011;64907;51.574;6.502;2023-04-29T02:18:10;59.72;;;31.45;;
76157;SDS011;64907;51.574;6.502;2023-04-29T02:20:35;58.90;;;31.63;;
76157;SDS011;64907;51.574;6.502;2023-04-29T02:23:00;60.65;;;32.30;;
76157;SDS011;64907;51.574;6.502;2023-04-29T02:25:26;64.68;;;33.63;;
76157;SDS011;64907;51.574;6.502;2023-04-29T02:27:51;61.60;;;31.27;;
76157;SDS011;64907;51.574;6.502;2023-04-29T02:30:17;60.08;;;32.30;;
76157;SDS011;64907;51.574;6.502;2023-04-29T02:32:42;67.50;;;33.77;;
76157;SDS011;64907;51.574;6.502;2023-04-29T02:35:07;59.40;;;30.47;;
76157;SDS011;64907;51.574;6.502;2023-04-29T02:37:33;59.22;;;31.05;;
76157;SDS011;64907;51.574;6.502;2023-04-29T02:39:58;62.60;;;32.75;;
76157;SDS011;64907;51.574;6.502;2023-04-29T02:42:23;59.90;;;32.15;;
76157;SDS011;64907;51.574;6.502;2023-04-29T02:44:48;61.43;;;31.73;;
76157;SDS011;64907;51.574;6.502;2023-04-29T02:47:14;64.18;;;34.53;;
76157;SDS011;64907;51.574;6.502;2023-04-29T02:49:39;55.58;;;29.88;;
76157;SDS011;64907;51.574;6.502;2023-04-29T02:52:04;60.80;;;32.80;;
76157;SDS011;64907;51.574;6.502;2023-04-29T02:54:29;55.00;;;30.47;;
76157;SDS011;64907;51.574;6.502;2023-04-29T02:56:55;63.88;;;34.47;;
76157;SDS011;64907;51.574;6.502;2023-04-29T02:59:21;52.25;;;29.48;;
76157;SDS011;64907;51.574;6.502;2023-04-29T03:01:46;59.53;;;30.13;;
76157;SDS011;64907;51.574;6.502;2023-04-29T03:04:12;55.63;;;29.75;;
76157;SDS011;64907;51.574;6.502;2023-04-29T03:06:37;53.58;;;30.73;;
76157;SDS011;64907;51.574;6.502;2023-04-29T03:09:02;54.88;;;30.08;;
76157;SDS011;64907;51.574;6.502;2023-04-29T03:11:28;43.92;;;26.77;;
76157;SDS011;64907;51.574;6.502;2023-04-29T03:13:53;48.63;;;28.10;;
76157;SDS011;64907;51.574;6.502;2023-04-29T03:16:18;41.53;;;25.90;;
76157;SDS011;64907;51.574;6.502;2023-04-29T03:18:43;41.78;;;25.70;;
76157;SDS011;64907;51.574;6.502;2023-04-29T03:21:09;43.25;;;27.58;;
76157;SDS011;64907;51.574;6.502;2023-04-29T03:23:34;45.17;;;26.58;;
76157;SDS011;64907;51.574;6.502;2023-04-29T03:25:59;49.80;;;27.67;;
76157;SDS011;64907;51.574;6.502;2023-04-29T03:28:25;50.13;;;27.75;;
76157;SDS011;64907;51.574;6.502;2023-04-29T03:30:50;43.92;;;25.20;;
76157;SDS011;64907;51.574;6.502;2023-04-29T03:33:15;41.50;;;24.52;;
76157;SDS011;64907;51.574;6.502;2023-04-29T03:35:41;47.72;;;27.25;;
76157;SDS011;64907;51.574;6.502;2023-04-29T03:38:06;50.47;;;27.92;;
76157;SDS011;64907;51.574;6.502;2023-04-29T03:40:31;45.53;;;26.38;;
76157;SDS011;64907;51.574;6.502;2023-04-29T03:42:56;46.05;;;26.83;;
76157;SDS011;64907;51.574;6.502;2023-04-29T03:45:22;50.13;;;27.40;;
76157;SDS011;64907;51.574;6.502;2023-04-29T03:47:47;47.93;;;26.53;;
76157;SDS011;64907;51.574;6.502;2023-04-29T03:50:12;52.20;;;27.35;;
76157;SDS011;64907;51.574;6.502;2023-04-29T03:52:37;47.97;;;26.85;;
76157;SDS011;64907;51.574;6.502;2023-04-29T03:55:03;45.28;;;26.55;;
76157;SDS011;64907;51.574;6.502;2023-04-29T03:57:28;49.78;;;28.65;;
76157;SDS011;64907;51.574;6.502;2023-04-29T03:59:53;42.87;;;25.50;;
76157;SDS011;64907;51.574;6.502;2023-04-29T04:02:19;43.38;;;25.77;;
76157;SDS011;64907;51.574;6.502;2023-04-29T04:04:44;44.47;;;25.60;;
76157;SDS011;64907;51.574;6.502;2023-04-29T04:07:09;48.70;;;26.83;;
76157;SDS011;64907;51.574;6.502;2023-04-29T04:09:35;41.88;;;26.58;;
76157;SDS011;64907;51.574;6.502;2023-04-29T04:12:01;38.45;;;25.38;;
76157;SDS011;64907;51.574;6.502;2023-04-29T04:14:26;39.20;;;24.65;;
76157;SDS011;64907;51.574;6.502;2023-04-29T04:16:51;41.13;;;25.23;;
76157;SDS011;64907;51.574;6.502;2023-04-29T04:19:16;40.22;;;25.00;;
76157;SDS011;64907;51.574;6.502;2023-04-29T04:21:42;43.22;;;24.65;;
76157;SDS011;64907;51.574;6.502;2023-04-29T04:24:07;37.00;;;24.35;;
76157;SDS011;64907;51.574;6.502;2023-04-29T04:26:32;42.03;;;24.38;;
76157;SDS011;64907;51.574;6.502;2023-04-29T04:28:57;38.20;;;24.20;;
76157;SDS011;64907;51.574;6.502;2023-04-29T04:31:23;40.00;;;25.20;;
76157;SDS011;64907;51.574;6.502;2023-04-29T04:33:48;35.47;;;23.65;;
76157;SDS011;64907;51.574;6.502;2023-04-29T04:36:13;37.47;;;24.35;;
76157;SDS011;64907;51.574;6.502;2023-04-29T04:38:38;38.42;;;25.40;;
76157;SDS011;64907;51.574;6.502;2023-04-29T04:41:06;35.70;;;23.67;;
76157;SDS011;64907;51.574;6.502;2023-04-29T04:43:32;38.67;;;23.83;;
76157;SDS011;64907;51.574;6.502;2023-04-29T04:45:57;35.00;;;23.33;;
76157;SDS011;64907;51.574;6.502;2023-04-29T04:48:22;38.88;;;23.73;;
76157;SDS011;64907;51.574;6.502;2023-04-29T04:50:48;37.85;;;24.33;;
76157;SDS011;64907;51.574;6.502;2023-04-29T04:53:13;35.83;;;22.00;;
76157;SDS011;64907;51.574;6.502;2023-04-29T04:55:38;38.55;;;22.33;;
76157;SDS011;64907;51.574;6.502;2023-04-29T04:58:03;31.95;;;21.63;;
76157;SDS011;64907;51.574;6.502;2023-04-29T05:00:28;35.78;;;22.92;;
76157;SDS011;64907;51.574;6.502;2023-04-29T05:02:54;30.90;;;22.25;;
76157;SDS011;64907;51.574;6.502;2023-04-29T05:05:19;36.10;;;25.17;;
76157;SDS011;64907;51.574;6.502;2023-04-29T05:07:44;35.42;;;23.23;;
76157;SDS011;64907;51.574;6.502;2023-04-29T05:10:10;32.85;;;21.98;;
76157;SDS011;64907;51.574;6.502;2023-04-29T05:12:35;34.22;;;22.38;;
76157;SDS011;64907;51.574;6.502;2023-04-29T05:15:00;33.63;;;22.80;;
76157;SDS011;64907;51.574;6.502;2023-04-29T05:17:26;32.63;;;21.65;;
76157;SDS011;64907;51.574;6.502;2023-04-29T05:19:51;31.52;;;21.48;;
76157;SDS011;64907;51.574;6.502;2023-04-29T05:22:16;34.65;;;22.73;;
76157;SDS011;64907;51.574;6.502;2023-04-29T05:24:41;30.20;;;22.00;;
76157;SDS011;64907;51.574;6.502;2023-04-29T05:27:07;34.10;;;20.70;;
76157;SDS011;64907;51.574;6.502;2023-04-29T05:29:32;31.63;;;21.67;;
76157;SDS011;64907;51.574;6.502;2023-04-29T05:31:57;30.30;;;20.30;;
76157;SDS011;64907;51.574;6.502;2023-04-29T05:34:23;30.75;;;21.67;;
76157;SDS011;64907;51.574;6.502;2023-04-29T05:36:48;31.58;;;21.77;;
76157;SDS011;64907;51.574;6.502;2023-04-29T05:39:13;31.73;;;21.50;;
76157;SDS011;64907;51.574;6.502;2023-04-29T05:41:39;28.35;;;20.27;;
76157;SDS011;64907;51.574;6.502;2023-04-29T05:44:04;29.55;;;21.17;;
76157;SDS011;64907;51.574;6.502;2023-04-29T05:46:29;32.92;;;23.17;;
76157;SDS011;64907;51.574;6.502;2023-04-29T05:48:54;37.67;;;23.03;;
76157;SDS011;64907;51.574;6.502;2023-04-29T05:51:19;27.55;;;20.67;;
76157;SDS011;64907;51.574;6.502;2023-04-29T05:53:45;30.77;;;20.67;;
76157;SDS011;64907;51.574;6.502;2023-04-29T05:56:10;27.67;;;20.20;;
76157;SDS011;64907;51.574;6.502;2023-04-29T05:58:35;26.40;;;20.63;;
76157;SDS011;64907;51.574;6.502;2023-04-29T06:01:01;30.17;;;21.08;;
76157;SDS011;64907;51.574;6.502;2023-04-29T06:03:27;25.65;;;20.55;;
76157;SDS011;64907;51.574;6.502;2023-04-29T06:05:52;24.87;;;18.77;;
76157;SDS011;64907;51.574;6.502;2023-04-29T06:08:17;27.92;;;20.20;;
76157;SDS011;64907;51.574;6.502;2023-04-29T06:10:43;25.48;;;19.80;;
76157;SDS011;64907;51.574;6.502;2023-04-29T06:13:08;27.40;;;20.10;;
76157;SDS011;64907;51.574;6.502;2023-04-29T06:15:33;29.33;;;18.63;;
76157;SDS011;64907;51.574;6.502;2023-04-29T06:17:59;27.33;;;19.35;;
76157;SDS011;64907;51.574;6.502;2023-04-29T06:20:24;26.38;;;20.17;;
76157;SDS011;64907;51.574;6.502;2023-04-29T06:22:50;29.08;;;20.42;;
76157;SDS011;64907;51.574;6.502;2023-04-29T06:25:15;32.53;;;20.85;;
76157;SDS011;64907;51.574;6.502;2023-04-29T06:27:40;25.75;;;19.73;;
76157;SDS011;64907;51.574;6.502;2023-04-29T06:30:06;24.58;;;17.92;;
76157;SDS011;64907;51.574;6.502;2023-04-29T06:32:31;22.52;;;17.95;;
76157;SDS011;64907;51.574;6.502;2023-04-29T06:34:57;23.73;;;18.88;;
76157;SDS011;64907;51.574;6.502;2023-04-29T06:37:23;24.48;;;19.35;;
76157;SDS011;64907;51.574;6.502;2023-04-29T06:39:48;25.17;;;18.45;;
76157;SDS011;64907;51.574;6.502;2023-04-29T06:42:13;26.63;;;18.00;;
76157;SDS011;64907;51.574;6.502;2023-04-29T06:44:39;25.65;;;19.23;;
76157;SDS011;64907;51.574;6.502;2023-04-29T06:47:04;21.77;;;18.42;;
76157;SDS011;64907;51.574;6.502;2023-04-29T06:49:30;27.33;;;19.30;;
76157;SDS011;64907;51.574;6.502;2023-04-29T06:51:55;24.97;;;19.30;;
76157;SDS011;64907;51.574;6.502;2023-04-29T06:54:20;26.33;;;18.92;;
76157;SDS011;64907;51.574;6.502;2023-04-29T06:56:45;26.17;;;18.40;;
76157;SDS011;64907;51.574;6.502;2023-04-29T06:59:12;25.20;;;18.15;;
76157;SDS011;64907;51.574;6.502;2023-04-29T07:01:37;22.77;;;17.95;;
76157;SDS011;64907;51.574;6.502;2023-04-29T07:04:03;22.40;;;19.08;;
76157;SDS011;64907;51.574;6.502;2023-04-29T07:06:28;28.40;;;19.10;;
76157;SDS011;64907;51.574;6.502;2023-04-29T07:08:53;24.90;;;18.88;;
76157;SDS011;64907;51.574;6.502;2023-04-29T07:11:19;23.20;;;18.33;;
76157;SDS011;64907;51.574;6.502;2023-04-29T07:13:44;22.50;;;17.38;;
76157;SDS011;64907;51.574;6.502;2023-04-29T07:16:13;25.65;;;19.42;;
76157;SDS011;64907;51.574;6.502;2023-04-29T07:18:39;25.45;;;20.30;;
76157;SDS011;64907;51.574;6.502;2023-04-29T07:21:04;27.63;;;19.65;;
76157;SDS011;64907;51.574;6.502;2023-04-29T07:23:30;26.77;;;19.45;;
76157;SDS011;64907;51.574;6.502;2023-04-29T07:25:55;25.10;;;18.53;;
76157;SDS011;64907;51.574;6.502;2023-04-29T07:28:20;24.70;;;18.73;;
76157;SDS011;64907;51.574;6.502;2023-04-29T07:30:45;25.83;;;19.67;;
76157;SDS011;64907;51.574;6.502;2023-04-29T07:33:11;26.10;;;18.70;;
76157;SDS011;64907;51.574;6.502;2023-04-29T07:35:36;29.75;;;19.95;;
76157;SDS011;64907;51.574;6.502;2023-04-29T07:38:01;27.55;;;20.83;;
76157;SDS011;64907;51.574;6.502;2023-04-29T07:40:26;23.53;;;18.83;;
76157;SDS011;64907;51.574;6.502;2023-04-29T07:42:52;29.42;;;21.27;;
76157;SDS011;64907;51.574;6.502;2023-04-29T07:45:17;33.60;;;24.98;;
76157;SDS011;64907;51.574;6.502;2023-04-29T07:47:43;29.70;;;22.60;;
76157;SDS011;64907;51.574;6.502;2023-04-29T07:50:10;32.35;;;23.90;;
76157;SDS011;64907;51.574;6.502;2023-04-29T07:52:36;30.25;;;20.67;;
76157;SDS011;64907;51.574;6.502;2023-04-29T07:55:01;31.63;;;23.30;;
76157;SDS011;64907;51.574;6.502;2023-04-29T07:57:26;34.35;;;23.75;;
76157;SDS011;64907;51.574;6.502;2023-04-29T07:59:52;30.15;;;21.77;;
76157;SDS011;64907;51.574;6.502;2023-04-29T08:02:17;29.83;;;21.52;;
76157;SDS011;64907;51.574;6.502;2023-04-29T08:04:43;31.33;;;21.55;;
76157;SDS011;64907;51.574;6.502;2023-04-29T08:07:08;30.65;;;21.55;;
76157;SDS011;64907;51.574;6.502;2023-04-29T08:09:33;31.35;;;22.15;;
76157;SDS011;64907;51.574;6.502;2023-04-29T08:11:58;30.27;;;21.73;;
76157;SDS011;64907;51.574;6.502;2023-04-29T08:14:24;31.20;;;21.38;;
76157;SDS011;64907;51.574;6.502;2023-04-29T08:16:49;36.55;;;23.98;;
76157;SDS011;64907;51.574;6.502;2023-04-29T08:19:14;33.25;;;23.20;;
76157;SDS011;64907;51.574;6.502;2023-04-29T08:21:39;30.60;;;21.25;;
76157;SDS011;64907;51.574;6.502;2023-04-29T08:24:05;35.30;;;24.27;;
76157;SDS011;64907;51.574;6.502;2023-04-29T08:26:30;31.02;;;23.95;;
76157;SDS011;64907;51.574;6.502;2023-04-29T08:28:55;29.23;;;22.80;;
76157;SDS011;64907;51.574;6.502;2023-04-29T08:31:21;35.93;;;23.87;;
76157;SDS011;64907;51.574;6.502;2023-04-29T08:33:46;30.60;;;22.80;;
76157;SDS011;64907;51.574;6.502;2023-04-29T08:36:12;31.13;;;22.88;;
76157;SDS011;64907;51.574;6.502;2023-04-29T08:38:37;32.13;;;21.92;;
76157;SDS011;64907;51.574;6.502;2023-04-29T08:41:02;34.35;;;24.77;;
76157;SDS011;64907;51.574;6.502;2023-04-29T08:43:27;37.10;;;24.77;;
76157;SDS011;64907;51.574;6.502;2023-04-29T08:45:53;28.38;;;21.35;;
76157;SDS011;64907;51.574;6.502;2023-04-29T08:48:19;34.38;;;24.35;;
76157;SDS011;64907;51.574;6.502;2023-04-29T08:50:44;32.05;;;24.75;;
76157;SDS011;64907;51.574;6.502;2023-04-29T08:53:11;31.15;;;23.33;;
76157;SDS011;64907;51.574;6.502;2023-04-29T08:55:40;32.92;;;20.00;;
76157;SDS011;64907;51.574;6.502;2023-04-29T08:58:06;27.38;;;20.73;;
76157;SDS011;64907;51.574;6.502;2023-04-29T09:00:31;27.33;;;20.70;;
76157;SDS011;64907;51.574;6.502;2023-04-29T09:02:58;33.15;;;21.50;;
76157;SDS011;64907;51.574;6.502;2023-04-29T09:05:24;26.52;;;20.80;;
76157;SDS011;64907;51.574;6.502;2023-04-29T09:07:50;24.67;;;20.92;;
76157;SDS011;64907;51.574;6.502;2023-04-29T09:10:16;26.85;;;20.05;;
76157;SDS011;64907;51.574;6.502;2023-04-29T09:12:42;25.05;;;20.67;;
76157;SDS011;64907;51.574;6.502;2023-04-29T09:15:07;30.70;;;21.42;;
76157;SDS011;64907;51.574;6.502;2023-04-29T09:17:45;26.80;;;20.35;;
76157;SDS011;64907;51.574;6.502;2023-04-29T09:25:13;34.35;;;21.02;;
76157;SDS011;64907;51.574;6.502;2023-04-29T09:27:40;24.08;;;19.10;;
76157;SDS011;64907;51.574;6.502;2023-04-29T09:30:06;26.17;;;20.55;;
76157;SDS011;64907;51.574;6.502;2023-04-29T09:32:32;22.23;;;17.95;;
76157;SDS011;64907;51.574;6.502;2023-04-29T09:34:58;27.00;;;18.73;;
76157;SDS011;64907;51.574;6.502;2023-04-29T09:37:25;22.17;;;17.48;;
76157;SDS011;64907;51.574;6.502;2023-04-29T09:39:51;24.63;;;18.42;;
76157;SDS011;64907;51.574;6.502;2023-04-29T09:42:16;24.80;;;19.27;;
76157;SDS011;64907;51.574;6.502;2023-04-29T09:44:42;23.80;;;18.52;;
76157;SDS011;64907;51.574;6.502;2023-04-29T09:47:08;20.88;;;17.63;;
76157;SDS011;64907;51.574;6.502;2023-04-29T09:49:36;23.88;;;16.40;;
76157;SDS011;64907;51.574;6.502;2023-04-29T09:52:12;21.60;;;17.55;;
76157;SDS011;64907;51.574;6.502;2023-04-29T09:54:38;24.17;;;17.98;;
76157;SDS011;64907;51.574;6.502;2023-04-29T09:57:05;26.00;;;17.73;;
76157;SDS011;64907;51.574;6.502;2023-04-29T09:59:31;22.67;;;18.35;;
76157;SDS011;64907;51.574;6.502;2023-04-29T10:02:00;20.95;;;16.80;;
76157;SDS011;64907;51.574;6.502;2023-04-29T10:04:27;26.00;;;18.52;;
76157;SDS011;64907;51.574;6.502;2023-04-29T10:06:54;23.70;;;18.17;;
76157;SDS011;64907;51.574;6.502;2023-04-29T10:09:20;25.35;;;18.58;;
76157;SDS011;64907;51.574;6.502;2023-04-29T10:11:49;23.08;;;17.48;;
76157;SDS011;64907;51.574;6.502;2023-04-29T10:14:15;20.17;;;16.95;;
76157;SDS011;64907;51.574;6.502;2023-04-29T10:17:15;19.98;;;16.23;;
76157;SDS011;64907;51.574;6.502;2023-04-29T10:19:37;20.75;;;14.35;;
76157;SDS011;64907;51.574;6.502;2023-04-29T10:22:08;20.25;;;16.42;;
76157;SDS011;64907;51.574;6.502;2023-04-29T10:24:34;19.95;;;15.80;;
76157;SDS011;64907;51.574;6.502;2023-04-29T10:27:02;24.08;;;17.70;;
76157;SDS011;64907;51.574;6.502;2023-04-29T10:29:29;21.35;;;16.17;;
76157;SDS011;64907;51.574;6.502;2023-04-29T10:31:59;20.27;;;18.13;;
76157;SDS011;64907;51.574;6.502;2023-04-29T10:34:24;20.45;;;17.73;;
76157;SDS011;64907;51.574;6.502;2023-04-29T10:36:50;19.33;;;16.50;;
76157;SDS011;64907;51.574;6.502;2023-04-29T10:40:17;20.67;;;14.75;;
76157;SDS011;64907;51.574;6.502;2023-04-29T10:42:36;20.42;;;15.65;;
76157;SDS011;64907;51.574;6.502;2023-04-29T10:47:40;18.55;;;16.15;;
76157;SDS011;64907;51.574;6.502;2023-04-29T10:50:07;19.90;;;17.65;;
76157;SDS011;64907;51.574;6.502;2023-04-29T10:52:49;22.75;;;16.50;;
76157;SDS011;64907;51.574;6.502;2023-04-29T10:55:15;19.85;;;16.55;;
76157;SDS011;64907;51.574;6.502;2023-04-29T10:57:40;20.35;;;16.23;;
76157;SDS011;64907;51.574;6.502;2023-04-29T11:00:14;21.67;;;17.08;;
76157;SDS011;64907;51.574;6.502;2023-04-29T11:02:46;18.67;;;15.55;;
76157;SDS011;64907;51.574;6.502;2023-04-29T11:05:11;18.73;;;16.08;;
76157;SDS011;64907;51.574;6.502;2023-04-29T11:07:36;19.70;;;15.18;;
76157;SDS011;64907;51.574;6.502;2023-04-29T11:10:02;20.75;;;16.55;;
76157;SDS011;64907;51.574;6.502;2023-04-29T11:12:27;21.83;;;15.73;;
76157;SDS011;64907;51.574;6.502;2023-04-29T11:14:52;21.65;;;16.50;;
76157;SDS011;64907;51.574;6.502;2023-04-29T11:17:19;18.27;;;14.73;;
76157;SDS011;64907;51.574;6.502;2023-04-29T11:19:45;16.67;;;14.95;;
76157;SDS011;64907;51.574;6.502;2023-04-29T11:27:14;17.73;;;14.15;;
76157;SDS011;64907;51.574;6.502;2023-04-29T11:29:39;16.08;;;13.93;;
76157;SDS011;64907;51.574;6.502;2023-04-29T11:32:05;13.18;;;11.48;;
76157;SDS011;64907;51.574;6.502;2023-04-29T11:37:03;14.80;;;13.40;;
76157;SDS011;64907;51.574;6.502;2023-04-29T11:39:33;16.75;;;13.52;;
76157;SDS011;64907;51.574;6.502;2023-04-29T11:42:03;15.60;;;14.00;;
76157;SDS011;64907;51.574;6.502;2023-04-29T11:44:28;15.45;;;13.45;;
76157;SDS011;64907;51.574;6.502;2023-04-29T11:47:00;17.55;;;12.80;;
76157;SDS011;64907;51.574;6.502;2023-04-29T11:49:29;16.92;;;14.13;;
76157;SDS011;64907;51.574;6.502;2023-04-29T11:51:55;17.33;;;14.32;;
76157;SDS011;64907;51.574;6.502;2023-04-29T11:54:20;16.60;;;14.02;;
76157;SDS011;64907;51.574;6.502;2023-04-29T11:56:45;15.60;;;13.88;;
76157;SDS011;64907;51.574;6.502;2023-04-29T11:59:10;14.67;;;13.17;;
76157;SDS011;64907;51.574;6.502;2023-04-29T12:01:35;15.13;;;11.98;;
76157;SDS011;64907;51.574;6.502;2023-04-29T12:04:01;12.90;;;11.70;;
76157;SDS011;64907;51.574;6.502;2023-04-29T12:06:27;13.05;;;11.45;;
76157;SDS011;64907;51.574;6.502;2023-04-29T12:08:53;16.13;;;10.07;;
76157;SDS011;64907;51.574;6.502;2023-04-29T12:11:18;14.57;;;11.35;;
76157;SDS011;64907;51.574;6.502;2023-04-29T12:13:44;12.38;;;10.13;;
76157;SDS011;64907;51.574;6.502;2023-04-29T12:16:09;14.60;;;11.73;;
76157;SDS011;64907;51.574;6.502;2023-04-29T12:18:34;11.57;;;10.38;;
76157;SDS011;64907;51.574;6.502;2023-04-29T12:21:00;14.82;;;11.35;;
76157;SDS011;64907;51.574;6.502;2023-04-29T12:23:25;11.75;;;10.65;;
76157;SDS011;64907;51.574;6.502;2023-04-29T12:25:52;12.30;;;10.00;;
76157;SDS011;64907;51.574;6.502;2023-04-29T12:28:17;11.10;;;10.07;;
76157;SDS011;64907;51.574;6.502;2023-04-29T12:30:43;11.20;;;10.10;;
76157;SDS011;64907;51.574;6.502;2023-04-29T12:33:09;13.48;;;10.48;;
76157;SDS011;64907;51.574;6.502;2023-04-29T12:35:35;10.68;;;9.52;;
76157;SDS011;64907;51.574;6.502;2023-04-29T12:38:01;13.20;;;10.02;;
76157;SDS011;64907;51.574;6.502;2023-04-29T12:40:26;12.70;;;9.25;;
76157;SDS011;64907;51.574;6.502;2023-04-29T12:42:52;12.57;;;10.18;;
76157;SDS011;64907;51.574;6.502;2023-04-29T12:45:25;15.40;;;10.63;;
76157;SDS011;64907;51.574;6.502;2023-04-29T12:47:50;13.27;;;10.35;;
76157;SDS011;64907;51.574;6.502;2023-04-29T12:50:15;11.98;;;10.80;;
76157;SDS011;64907;51.574;6.502;2023-04-29T12:52:41;14.57;;;10.63;;
76157;SDS011;64907;51.574;6.502;2023-04-29T12:55:06;11.27;;;10.13;;
76157;SDS011;64907;51.574;6.502;2023-04-29T12:57:32;11.38;;;10.00;;
76157;SDS011;64907;51.574;6.502;2023-04-29T12:59:57;12.07;;;9.37;;
76157;SDS011;64907;51.574;6.502;2023-04-29T13:02:22;9.97;;;8.73;;
76157;SDS011;64907;51.574;6.502;2023-04-29T13:04:47;10.13;;;8.43;;
76157;SDS011;64907;51.574;6.502;2023-04-29T13:07:13;9.47;;;8.50;;
76157;SDS011;64907;51.574;6.502;2023-04-29T13:09:38;9.07;;;8.03;;
76157;SDS011;64907;51.574;6.502;2023-04-29T13:12:05;11.02;;;9.38;;
76157;SDS011;64907;51.574;6.502;2023-04-29T13:14:32;9.50;;;8.70;;
76157;SDS011;64907;51.574;6.502;2023-04-29T13:16:57;10.10;;;9.00;;
76157;SDS011;64907;51.574;6.502;2023-04-29T13:19:22;9.13;;;8.20;;
76157;SDS011;64907;51.574;6.502;2023-04-29T13:21:48;12.03;;;8.57;;
76157;SDS011;64907;51.574;6.502;2023-04-29T13:24:14;11.98;;;10.00;;
76157;SDS011;64907;51.574;6.502;2023-04-29T13:26:42;10.50;;;9.50;;
76157;SDS011;64907;51.574;6.502;2023-04-29T13:29:07;10.10;;;9.10;;
76157;SDS011;64907;51.574;6.502;2023-04-29T13:31:32;12.40;;;9.20;;
76157;SDS011;64907;51.574;6.502;2023-04-29T13:33:57;9.17;;;8.23;;
76157;SDS011;64907;51.574;6.502;2023-04-29T13:36:23;9.25;;;8.35;;
76157;SDS011;64907;51.574;6.502;2023-04-29T13:38:48;9.70;;;8.87;;
76157;SDS011;64907;51.574;6.502;2023-04-29T13:41:13;10.68;;;9.30;;
76157;SDS011;64907;51.574;6.502;2023-04-29T13:43:38;8.98;;;8.27;;
76157;SDS011;64907;51.574;6.502;2023-04-29T13:46:04;9.57;;;8.48;;
76157;SDS011;64907;51.574;6.502;2023-04-29T13:48:29;9.13;;;7.97;;
76157;SDS011;64907;51.574;6.502;2023-04-29T13:50:55;9.75;;;8.10;;
76157;SDS011;64907;51.574;6.502;2023-04-29T13:53:20;11.65;;;8.57;;
76157;SDS011;64907;51.574;6.502;2023-04-29T13:55:45;10.82;;;9.90;;
76157;SDS011;64907;51.574;6.502;2023-04-29T13:58:10;9.57;;;8.52;;
76157;SDS011;64907;51.574;6.502;2023-04-29T14:00:36;9.63;;;8.65;;
76157;SDS011;64907;51.574;6.502;2023-04-29T14:03:03;11.70;;;8.45;;
76157;SDS011;64907;51.574;6.502;2023-04-29T14:05:28;9.98;;;8.52;;
76157;SDS011;64907;51.574;6.502;2023-04-29T14:07:53;10.00;;;8.30;;
76157;SDS011;64907;51.574;6.502;2023-04-29T14:10:18;9.50;;;8.60;;
76157;SDS011;64907;51.574;6.502;2023-04-29T14:12:43;8.60;;;7.80;;
76157;SDS011;64907;51.574;6.502;2023-04-29T14:15:09;9.30;;;8.18;;
76157;SDS011;64907;51.574;6.502;2023-04-29T14:17:34;9.20;;;7.43;;
76157;SDS011;64907;51.574;6.502;2023-04-29T14:20:00;8.40;;;7.70;;
76157;SDS011;64907;51.574;6.502;2023-04-29T14:22:26;9.00;;;7.97;;
76157;SDS011;64907;51.574;6.502;2023-04-29T14:24:51;8.63;;;7.88;;
76157;SDS011;64907;51.574;6.502;2023-04-29T14:27:16;8.52;;;7.65;;
76157;SDS011;64907;51.574;6.502;2023-04-29T14:29:42;9.00;;;7.93;;
76157;SDS011;64907;51.574;6.502;2023-04-29T14:32:07;10.43;;;8.47;;
76157;SDS011;64907;51.574;6.502;2023-04-29T14:34:32;8.23;;;7.18;;
76157;SDS011;64907;51.574;6.502;2023-04-29T14:36:58;7.68;;;7.07;;